This is the latest recevied weather packets stored in our database for station/object LRSM. If no packets are shown the sender has not sent any weather packets the latest 10 day(s).
| Time | Temp. | Humidity | Pressure | Rain* | Wind** | Luminosity | Snow |
|---|---|---|---|---|---|---|---|
| 1777817913 | 21.11° C | 27% | 1019 hPa | - | - | - | - |
| 1777814313 | 21.11° C | 27% | 1020 hPa | - | - | - | - |
| 1777809813 | 20° C | 28% | 1020 hPa | - | - | - | - |
| 1777808913 | 18.89° C | 30% | 1021 hPa | - | - | - | - |
| 1777804421 | 17.78° C | 32% | 1022 hPa | - | - | - | - |
| 1777800813 | 17.22° C | 34% | 1022 hPa | - | - | - | - |
| 1777799913 | 17.22° C | 34% | 1023 hPa | - | - | - | - |
| 1777799033 | 17.22° C | 34% | 1023 hPa | - | - | - | - |
| 1777798113 | 17.22° C | 32% | 1023 hPa | - | - | - | - |
| 1777797212 | 17.22° C | 32% | 1023 hPa | - | - | - | - |
| 1777796313 | 16.11° C | 34% | 1023 hPa | - | - | - | - |
| 1777795423 | 16.11° C | 34% | 1023 hPa | - | - | - | - |
| 1777793612 | 15° C | 36% | 1023 hPa | - | - | - | - |
| 1777792711 | 15° C | 36% | 1023 hPa | - | - | - | - |
| 1777791813 | 15° C | 36% | 1023 hPa | - | - | - | - |
| 1777790913 | 15° C | 36% | 1023 hPa | - | - | - | - |
| 1777790049 | 15° C | 36% | 1023 hPa | - | - | - | - |
| 1777789113 | 12.78° C | 44% | 1023 hPa | - | - | - | - |
| 1777788212 | 12.78° C | 44% | 1023 hPa | - | - | - | - |
| 1777787312 | 12.22° C | 47% | 1023 hPa | - | - | - | - |
| 1777786412 | 12.22° C | 47% | 1023 hPa | - | - | - | - |
| 1777785512 | 10° C | 54% | 1023 hPa | - | - | - | - |
| 1777784612 | 10° C | 54% | 1023 hPa | - | - | - | - |
| 1777783712 | 7.78° C | 62% | 1023 hPa | - | - | - | - |
| 1777782813 | 7.78° C | 62% | 1023 hPa | - | - | - | - |
* Rain since midnight (hover to see other rain measurements)
** Current wind speed in m/s (hover to see current wind gust speed)